Terminal Aerodrome Forecast
Issued by NWS

Home | Current Version | Previous Version | Text Only | Print | Product List | Glossary On
Versions: 1 2 3 4 5 6 7 8 9 10 11 12 13 14 15 16 17 18 19 20 21 22 23 24 25 26 27 28 29 30 31 32 33 34
000
FTUS43 KSGF 282337
TAFJLN
TAF
KJLN 282337Z 2900/2924 07004KT 6SM -DZ SCT015 BKN030
     FM290300 05005KT P6SM BKN015 OVC030
     FM290500 05006KT 6SM -TSRA OVC015CB
      TEMPO 2907/2911 3SM TSRA OVC012CB
     FM291400 07008KT 4SM TSRA OVC020CB=

USA.gov is the U.S. government's official web portal to all federal, state and local government web resources and services.